Time;durP1;ratioP1;P1;durP2;ratioP2;P2;SDS_P1;SDS_P2;PMS_P1;PMS_P2;Temp;Humidity;BMP_temperature;BMP_pressure;BME280_temperature;BME280_humidity;BME280_pressure;Samples;Min_cycle;Max_cycle;Signal;HPM_P1;HPM_P2
2022/09/27 06:25:23;;;;;;;;;0.00;0.00;;;;;;;;6211491;22;29292;-89
2022/09/27 06:27:48;;;;;;;;;0.00;0.00;;;;;;;;6205001;22;28703;-91
2022/09/27 06:30:13;;;;;;;;;0.00;0.00;;;;;;;;6230487;22;28579;-87
2022/09/27 06:32:38;;;;;;;;;0.00;0.00;;;;;;;;6204068;22;28512;-88
2022/09/27 06:35:04;;;;;;;;;0.00;0.00;;;;;;;;6230869;22;28591;-88
2022/09/27 06:37:30;;;;;;;;;0.00;0.00;;;;;;;;6203794;22;28501;-89
2022/09/27 06:39:55;;;;;;;;;0.00;0.00;;;;;;;;6231585;22;28432;-89
2022/09/27 06:42:20;;;;;;;;;0.00;0.00;;;;;;;;6230953;22;28361;-89
2022/09/27 06:44:48;;;;;;;;;0.00;0.00;;;;;;;;6231371;22;28431;-89
2022/09/27 06:47:14;;;;;;;;;0.00;0.00;;;;;;;;6230883;22;28302;-91
2022/09/27 06:49:40;;;;;;;;;0.00;0.00;;;;;;;;6231937;22;28330;-92
2022/09/27 06:52:05;;;;;;;;;0.00;0.00;;;;;;;;6231541;22;28329;-94
2022/09/27 06:54:30;;;;;;;;;0.00;0.00;;;;;;;;6203724;22;29819;-90
2022/09/27 06:56:55;;;;;;;;;0.00;0.00;;;;;;;;6230517;22;28334;-91
2022/09/27 07:02:05;;;;;;;;;0.00;0.00;;;;;;;;6231060;22;28786;-92
2022/09/27 07:04:30;;;;;;;;;0.00;0.00;;;;;;;;6204430;22;30346;-91
2022/09/27 07:06:55;;;;;;;;;0.00;0.00;;;;;;;;6202625;22;28686;-87
2022/09/27 07:09:21;;;;;;;;;0.00;0.00;;;;;;;;6228920;22;28402;-87
2022/09/27 07:11:46;;;;;;;;;0.00;0.00;;;;;;;;6228677;22;28314;-93
2022/09/27 07:14:11;;;;;;;;;0.00;0.00;;;;;;;;6229329;22;28616;-88
2022/09/27 07:16:37;;;;;;;;;0.00;0.00;;;;;;;;6228580;22;28336;-89
2022/09/27 07:19:02;;;;;;;;;0.00;0.00;;;;;;;;6223560;22;28301;-88
2022/09/27 07:21:27;;;;;;;;;0.00;0.00;;;;;;;;6229155;22;28330;-88
2022/09/27 07:23:53;;;;;;;;;0.00;0.00;;;;;;;;6224932;22;28787;-89
2022/09/27 07:26:18;;;;;;;;;0.00;0.00;;;;;;;;6228630;22;28884;-93
2022/09/27 07:28:44;;;;;;;;;0.00;0.00;;;;;;;;6231096;22;28278;-91
2022/09/27 07:31:10;;;;;;;;;0.00;0.00;;;;;;;;6229694;22;28384;-91
2022/09/27 07:33:35;;;;;;;;;0.00;0.00;;;;;;;;6230404;22;28368;-91
2022/09/27 07:36:05;;;;;;;;;0.00;0.00;;;;;;;;6229570;22;28377;-90
2022/09/27 07:38:31;;;;;;;;;0.00;0.00;;;;;;;;6229140;22;28393;-91
2022/09/27 07:40:56;;;;;;;;;0.00;0.00;;;;;;;;6203775;22;28351;-93
2022/09/27 07:43:22;;;;;;;;;0.00;0.00;;;;;;;;6205163;22;30148;-92
2022/09/27 07:45:47;;;;;;;;;0.00;0.00;;;;;;;;6205790;22;28705;-92
2022/09/27 07:48:13;;;;;;;;;0.00;0.00;;;;;;;;6206506;22;28485;-90
2022/09/27 07:50:39;;;;;;;;;0.00;0.00;;;;;;;;6231987;22;28345;-94
2022/09/27 07:53:04;;;;;;;;;0.00;0.00;;;;;;;;6230846;22;28266;-93
2022/09/27 07:55:29;;;;;;;;;0.00;0.00;;;;;;;;6203250;22;28358;-91
2022/09/27 07:58:02;;;;;;;;;0.00;0.00;;;;;;;;6204538;22;28504;-93
2022/09/27 08:00:27;;;;;;;;;0.00;0.00;;;;;;;;6229918;22;28449;-91
2022/09/27 08:02:52;;;;;;;;;0.00;0.00;;;;;;;;6203873;22;30121;-94
2022/09/27 08:05:17;;;;;;;;;0.00;0.00;;;;;;;;6230878;22;28302;-92
2022/09/27 08:07:43;;;;;;;;;0.00;0.00;;;;;;;;6230833;22;28488;-92
2022/09/27 08:10:08;;;;;;;;;0.00;0.00;;;;;;;;6205125;22;28505;-92
2022/09/27 08:12:33;;;;;;;;;0.00;0.00;;;;;;;;6203019;22;31245;-91
2022/09/27 08:15:00;;;;;;;;;0.00;0.00;;;;;;;;6230798;22;28428;-92
2022/09/27 08:17:26;;;;;;;;;0.00;0.00;;;;;;;;6231344;22;28405;-94
2022/09/27 08:19:52;;;;;;;;;0.00;0.00;;;;;;;;6231630;22;28511;-93
2022/09/27 08:22:20;;;;;;;;;0.00;0.00;;;;;;;;6202938;22;30865;-91
2022/09/27 08:24:45;;;;;;;;;0.00;0.00;;;;;;;;6202886;22;28502;-91
2022/09/27 08:27:11;;;;;;;;;0.00;0.00;;;;;;;;6198484;23;28790;-93
2022/09/27 08:29:40;;;;;;;;;0.00;0.00;;;;;;;;6199528;23;28847;-91
2022/09/27 08:32:05;;;;;;;;;0.00;0.00;;;;;;;;6198586;23;29723;-93
2022/09/27 08:34:30;;;;;;;;;0.00;0.00;;;;;;;;6199967;23;29272;-93
2022/09/27 08:36:56;;;;;;;;;0.00;0.00;;;;;;;;6200893;23;27814;-93
2022/09/27 08:39:21;;;;;;;;;0.00;0.00;;;;;;;;6224634;22;28558;-91
2022/09/27 08:42:19;;;;;;;;;0.00;0.00;;;;;;;;6198207;23;30000;-92
2022/09/27 08:44:59;;;;;;;;;0.00;0.00;;;;;;;;6108424;23;28423;-93
2022/09/27 08:47:36;;;;;;;;;0.00;0.00;;;;;;;;6219051;22;8792;-96
2022/09/27 08:50:03;;;;;;;;;0.00;0.00;;;;;;;;6209177;23;8725;-96
2022/09/27 08:52:31;;;;;;;;;0.00;0.00;;;;;;;;6239721;23;8816;-96
2022/09/27 08:55:00;;;;;;;;;0.00;0.00;;;;;;;;6213009;23;8768;-96
2022/09/27 08:57:25;;;;;;;;;0.00;0.00;;;;;;;;6217463;23;8690;-96
2022/09/27 08:59:58;;;;;;;;;0.00;0.00;;;;;;;;6244238;23;8807;-96
2022/09/27 09:02:25;;;;;;;;;0.00;0.00;;;;;;;;6241988;23;8879;-96
2022/09/27 09:04:53;;;;;;;;;0.00;0.00;;;;;;;;6238784;23;11548;-95
2022/09/27 09:07:36;;;;;;;;;0.00;0.00;;;;;;;;6210541;23;8725;-96
2022/09/27 09:13:24;;;;;;;;;0.00;0.00;;;;;;;;6234496;23;8792;-95
2022/09/27 09:15:55;;;;;;;;;0.00;0.00;;;;;;;;6203632;23;8685;-96
2022/09/27 09:18:21;;;;;;;;;0.00;0.00;;;;;;;;6242647;22;8752;-93
2022/09/27 09:20:54;;;;;;;;;0.00;0.00;;;;;;;;6240508;22;8869;-96
2022/09/27 09:23:41;;;;;;;;;0.00;0.00;;;;;;;;6208065;23;8807;-96
2022/09/27 09:26:06;;;;;;;;;0.00;0.00;;;;;;;;6213181;23;11448;-96
2022/09/27 09:28:46;;;;;;;;;0.00;0.00;;;;;;;;6243426;23;8761;-96
2022/09/27 09:34:10;;;;;;;;;0.00;0.00;;;;;;;;6247761;22;8719;-96
2022/09/27 09:36:46;;;;;;;;;0.00;0.00;;;;;;;;6219835;22;8787;-96
2022/09/27 09:39:37;;;;;;;;;0.00;0.00;;;;;;;;6214774;23;8695;-96
2022/09/27 09:42:03;;;;;;;;;3.00;3.00;;;;;;;;6236610;23;11462;-96
2022/09/27 09:44:33;;;;;;;;;0.00;0.00;;;;;;;;6245634;23;8766;-96
2022/09/27 09:47:11;;;;;;;;;0.00;0.00;;;;;;;;6247557;22;8731;-96
2022/09/27 09:49:41;;;;;;;;;0.00;0.00;;;;;;;;6251602;22;11490;-96
2022/09/27 09:52:11;;;;;;;;;0.00;0.00;;;;;;;;6229422;22;11444;-96
2022/09/27 09:54:51;;;;;;;;;0.00;0.00;;;;;;;;6212942;22;11572;-96
2022/09/27 09:57:22;;;;;;;;;0.00;0.00;;;;;;;;6248316;23;11397;-96
2022/09/27 09:59:53;;;;;;;;;0.00;0.00;;;;;;;;6247539;23;8696;-96
2022/09/27 10:02:18;;;;;;;;;0.00;0.00;;;;;;;;6251888;22;11387;-96
2022/09/27 10:04:43;;;;;;;;;0.00;0.00;;;;;;;;6240179;23;12182;-90
2022/09/27 10:07:09;;;;;;;;;0.00;0.00;;;;;;;;6231977;22;8836;-96
2022/09/27 10:12:15;;;;;;;;;0.00;0.00;;;;;;;;6228682;22;8758;-96
2022/09/27 10:14:41;;;;;;;;;0.00;0.00;;;;;;;;6244504;22;11495;-95
2022/09/27 10:17:10;;;;;;;;;0.00;0.00;;;;;;;;6239026;22;11538;-96
2022/09/27 10:19:36;;;;;;;;;0.00;0.00;;;;;;;;6245327;22;8690;-96
2022/09/27 10:22:10;;;;;;;;;0.00;0.00;;;;;;;;6240930;22;11427;-95
2022/09/27 10:24:51;;;;;;;;;0.00;0.00;;;;;;;;6245359;22;8774;-96
2022/09/27 10:27:19;;;;;;;;;0.00;0.00;;;;;;;;6237013;22;8782;-96
2022/09/27 10:29:45;;;;;;;;;0.00;0.00;;;;;;;;6279994;22;11375;-96
2022/09/27 10:32:23;;;;;;;;;0.00;0.00;;;;;;;;6269165;22;11446;-92
2022/09/27 10:34:50;;;;;;;;;0.00;0.00;;;;;;;;6235045;22;8785;-95
2022/09/27 10:37:16;;;;;;;;;0.00;0.00;;;;;;;;6240292;22;11427;-96
2022/09/27 10:39:42;;;;;;;;;0.00;0.00;;;;;;;;6236287;22;11372;-96
2022/09/27 10:42:26;;;;;;;;;0.00;0.00;;;;;;;;6231142;22;11618;-96
2022/09/27 10:44:52;;;;;;;;;0.00;0.00;;;;;;;;6271015;22;11514;-95
2022/09/27 10:47:21;;;;;;;;;0.00;0.00;;;;;;;;6236869;22;11496;-96
2022/09/27 10:49:47;;;;;;;;;0.00;0.00;;;;;;;;6230575;22;11474;-95
2022/09/27 10:52:17;;;;;;;;;0.00;0.00;;;;;;;;6241474;22;11434;-95
2022/09/27 10:54:51;;;;;;;;;0.00;0.00;;;;;;;;6234370;22;8778;-95
2022/09/27 10:57:18;;;;;;;;;0.00;0.00;;;;;;;;6232566;22;11466;-90
2022/09/27 10:59:45;;;;;;;;;0.00;0.00;;;;;;;;6227177;22;11424;-92
2022/09/27 11:02:34;;;;;;;;;0.00;0.00;;;;;;;;6255276;22;11455;-91
2022/09/27 11:05:05;;;;;;;;;0.00;0.00;;;;;;;;6212818;22;11439;-93
2022/09/27 11:07:30;;;;;;;;;0.00;0.00;;;;;;;;6257527;22;11431;-96
2022/09/27 11:10:01;;;;;;;;;0.00;0.00;;;;;;;;6229200;22;11459;-91
2022/09/27 11:12:27;;;;;;;;;0.00;0.00;;;;;;;;6255963;22;8757;-95
2022/09/27 11:15:01;;;;;;;;;0.00;0.00;;;;;;;;6231338;22;11558;-96
2022/09/27 11:17:53;;;;;;;;;0.00;0.00;;;;;;;;6229179;22;8742;-94
2022/09/27 11:20:19;;;;;;;;;0.00;0.00;;;;;;;;6221509;22;11529;-92
2022/09/27 11:23:15;;;;;;;;;0.00;0.00;;;;;;;;6252554;22;11451;-92
2022/09/27 11:25:52;;;;;;;;;0.00;0.00;;;;;;;;6254843;22;8746;-92
2022/09/27 11:28:32;;;;;;;;;0.00;0.00;;;;;;;;6253507;22;8761;-90
2022/09/27 11:31:13;;;;;;;;;0.00;0.00;;;;;;;;6255784;22;11447;-92
2022/09/27 11:33:50;;;;;;;;;0.00;0.00;;;;;;;;6255469;22;9031;-93
2022/09/27 11:36:25;;;;;;;;;0.00;0.00;;;;;;;;6253513;22;11439;-91
2022/09/27 11:38:53;;;;;;;;;0.00;0.00;;;;;;;;6254839;22;8849;-91
2022/09/27 11:41:28;;;;;;;;;0.00;0.00;;;;;;;;6254921;22;8746;-93
2022/09/27 11:43:57;;;;;;;;;0.00;0.00;;;;;;;;6257425;22;8972;-95
2022/09/27 11:46:25;;;;;;;;;0.00;0.00;;;;;;;;6255292;22;8769;-95
2022/09/27 11:49:01;;;;;;;;;0.00;0.00;;;;;;;;6257689;22;8747;-93
2022/09/27 11:51:26;;;;;;;;;0.00;0.00;;;;;;;;6229202;22;11459;-96
2022/09/27 11:53:57;;;;;;;;;0.00;0.00;;;;;;;;6255358;22;8781;-95
2022/09/27 11:56:26;;;;;;;;;0.00;0.00;;;;;;;;6255003;22;9974;-95
2022/09/27 11:59:06;;;;;;;;;0.00;0.00;;;;;;;;6255104;22;11447;-94
2022/09/27 12:01:34;;;;;;;;;0.00;0.00;;;;;;;;6254495;22;11423;-93
2022/09/27 12:04:09;;;;;;;;;0.00;0.00;;;;;;;;6254367;22;11443;-95
2022/09/27 12:06:41;;;;;;;;;0.00;0.00;;;;;;;;6254454;22;11521;-95
2022/09/27 12:09:06;;;;;;;;;0.00;0.00;;;;;;;;6229784;22;11524;-94
2022/09/27 12:11:41;;;;;;;;;0.00;0.00;;;;;;;;6256428;22;11466;-94
2022/09/27 12:14:13;;;;;;;;;0.00;0.00;;;;;;;;6223560;23;10176;-93
2022/09/27 12:16:39;;;;;;;;;0.00;0.00;;;;;;;;6218761;23;11456;-93
2022/09/27 12:19:09;;;;;;;;;0.00;0.00;;;;;;;;6249142;22;11435;-94
2022/09/27 12:21:35;;;;;;;;;1.67;1.00;;;;;;;;6223515;23;8774;-95
2022/09/27 12:24:02;;;;;;;;;0.00;0.00;;;;;;;;6224136;23;9501;-92
2022/09/27 12:26:33;;;;;;;;;0.00;0.00;;;;;;;;6249404;22;8747;-94
2022/09/27 12:29:01;;;;;;;;;0.00;0.00;;;;;;;;6249210;22;11435;-91
2022/09/27 12:31:33;;;;;;;;;0.00;0.00;;;;;;;;6227968;23;9631;-95
2022/09/27 12:34:02;;;;;;;;;0.00;0.00;;;;;;;;6224177;23;11467;-94
2022/09/27 12:36:34;;;;;;;;;0.00;0.00;;;;;;;;6225622;23;11415;-96
2022/09/27 12:39:04;;;;;;;;;0.00;0.00;;;;;;;;6224441;23;11417;-95
2022/09/27 12:41:34;;;;;;;;;0.00;0.00;;;;;;;;6226156;23;11373;-94
2022/09/27 12:43:59;;;;;;;;;0.00;0.00;;;;;;;;6226591;23;8760;-91
2022/09/27 12:46:51;;;;;;;;;0.00;0.00;;;;;;;;6223850;23;11445;-95
2022/09/27 12:49:35;;;;;;;;;0.00;0.00;;;;;;;;6246261;22;8728;-94
2022/09/27 12:52:03;;;;;;;;;0.00;0.00;;;;;;;;6225176;23;11495;-92
2022/09/27 12:54:35;;;;;;;;;0.00;0.00;;;;;;;;6223949;23;11390;-95
2022/09/27 12:57:18;;;;;;;;;0.00;0.00;;;;;;;;6225816;23;11492;-95
2022/09/27 12:59:49;;;;;;;;;0.00;0.00;;;;;;;;6225142;23;11406;-94
2022/09/27 13:02:33;;;;;;;;;0.00;0.00;;;;;;;;6219339;23;11409;-94
2022/09/27 13:05:17;;;;;;;;;0.00;0.00;;;;;;;;6223417;23;11504;-90
2022/09/27 13:07:46;;;;;;;;;0.00;0.00;;;;;;;;6222840;23;11433;-93
2022/09/27 13:10:30;;;;;;;;;0.00;0.00;;;;;;;;6223845;23;11501;-93
2022/09/27 13:12:59;;;;;;;;;0.00;0.00;;;;;;;;6248898;22;11540;-94
2022/09/27 13:15:30;;;;;;;;;0.00;0.00;;;;;;;;6248300;22;11569;-93
2022/09/27 13:17:57;;;;;;;;;0.00;0.00;;;;;;;;6223970;23;8752;-94
2022/09/27 13:20:34;;;;;;;;;0.00;0.00;;;;;;;;6224365;23;11437;-95
2022/09/27 13:23:01;;;;;;;;;0.00;0.00;;;;;;;;6223626;23;11448;-96
2022/09/27 13:25:45;;;;;;;;;0.00;0.00;;;;;;;;6223218;23;11452;-94
2022/09/27 13:28:35;;;;;;;;;0.00;0.00;;;;;;;;6221437;23;11457;-92
2022/09/27 13:31:11;;;;;;;;;0.00;0.00;;;;;;;;6214738;23;11543;-94
2022/09/27 13:33:45;;;;;;;;;0.00;0.00;;;;;;;;6222972;23;8755;-93
2022/09/27 13:36:18;;;;;;;;;0.00;0.00;;;;;;;;6220066;23;11533;-89
2022/09/27 13:39:04;;;;;;;;;0.00;0.00;;;;;;;;6223631;23;11451;-92
2022/09/27 13:41:52;;;;;;;;;0.00;0.00;;;;;;;;6220708;23;11544;-93
2022/09/27 13:44:36;;;;;;;;;0.00;0.00;;;;;;;;6207630;23;8740;-93
2022/09/27 13:47:24;;;;;;;;;0.00;0.00;;;;;;;;6219046;23;8739;-91
2022/09/27 13:49:50;;;;;;;;;0.00;0.00;;;;;;;;6220119;23;8759;-90
2022/09/27 13:52:32;;;;;;;;;0.00;0.00;;;;;;;;6221142;23;8755;-90
2022/09/27 13:54:58;;;;;;;;;0.00;0.00;;;;;;;;6222188;23;8782;-90
2022/09/27 13:57:39;;;;;;;;;0.00;0.00;;;;;;;;6221529;23;11448;-90
2022/09/27 14:00:07;;;;;;;;;0.00;0.00;;;;;;;;6221559;23;8766;-91
2022/09/27 14:02:38;;;;;;;;;0.00;0.00;;;;;;;;6222328;23;8756;-92
2022/09/27 14:05:08;;;;;;;;;0.00;0.00;;;;;;;;6222447;23;8744;-90
2022/09/27 14:07:35;;;;;;;;;0.00;0.00;;;;;;;;6224551;23;11432;-92
2022/09/27 14:10:02;;;;;;;;;0.00;0.00;;;;;;;;6223675;23;8748;-89
2022/09/27 14:12:30;;;;;;;;;0.00;0.00;;;;;;;;6231313;22;11419;-91
2022/09/27 14:14:56;;;;;;;;;0.00;0.00;;;;;;;;6254590;22;11528;-92
2022/09/27 14:17:21;;;;;;;;;0.00;0.00;;;;;;;;6253466;22;11431;-91
2022/09/27 14:19:48;;;;;;;;;0.00;0.00;;;;;;;;6226511;22;8864;-94
2022/09/27 14:22:17;;;;;;;;;0.00;0.00;;;;;;;;6227512;22;8823;-93
2022/09/27 14:24:42;;;;;;;;;0.00;0.00;;;;;;;;6253822;22;11431;-92
2022/09/27 14:27:16;;;;;;;;;0.00;0.00;;;;;;;;6253642;22;11469;-89
2022/09/27 14:29:47;;;;;;;;;0.00;0.00;;;;;;;;6227599;22;8754;-91
2022/09/27 14:32:15;;;;;;;;;0.00;0.00;;;;;;;;6253741;22;8714;-90
2022/09/27 14:34:44;;;;;;;;;0.00;0.00;;;;;;;;6229434;22;8758;-96
2022/09/27 14:37:24;;;;;;;;;0.00;0.00;;;;;;;;6230417;22;9571;-94
2022/09/27 14:39:58;;;;;;;;;0.00;0.00;;;;;;;;6231859;22;8852;-95
2022/09/27 14:42:27;;;;;;;;;0.00;0.00;;;;;;;;6229891;22;8835;-94
2022/09/27 14:45:02;;;;;;;;;0.00;0.00;;;;;;;;6228499;22;11431;-93
2022/09/27 14:47:28;;;;;;;;;0.00;0.00;;;;;;;;6228888;22;11465;-92
2022/09/27 14:49:55;;;;;;;;;0.00;0.00;;;;;;;;6223676;22;11423;-88
2022/09/27 14:52:26;;;;;;;;;0.00;0.00;;;;;;;;6225284;22;8756;-87
2022/09/27 14:54:59;;;;;;;;;0.00;0.00;;;;;;;;6253914;22;11461;-88
2022/09/27 14:57:25;;;;;;;;;0.00;0.00;;;;;;;;6252879;22;8734;-87
2022/09/27 14:59:50;;;;;;;;;0.00;0.00;;;;;;;;6254400;22;11522;-91
2022/09/27 15:02:21;;;;;;;;;0.00;0.00;;;;;;;;6225965;22;8769;-88
2022/09/27 15:04:47;;;;;;;;;0.00;0.00;;;;;;;;6225958;22;9500;-87
2022/09/27 15:07:15;;;;;;;;;0.00;0.00;;;;;;;;6252789;22;8758;-87
2022/09/27 15:09:40;;;;;;;;;0.00;0.00;;;;;;;;6225805;22;8734;-87
2022/09/27 15:12:07;;;;;;;;;0.00;0.00;;;;;;;;6251533;22;11493;-87
2022/09/27 15:14:36;;;;;;;;;0.00;0.00;;;;;;;;6226725;22;8762;-88
2022/09/27 15:17:04;;;;;;;;;0.00;0.00;;;;;;;;6225578;22;8750;-88
2022/09/27 15:19:30;;;;;;;;;0.00;0.00;;;;;;;;6226202;22;8731;-88
2022/09/27 15:22:15;;;;;;;;;0.00;0.00;;;;;;;;6224836;22;8874;-87
2022/09/27 15:24:45;;;;;;;;;0.00;0.00;;;;;;;;6252719;22;8734;-88
2022/09/27 15:27:21;;;;;;;;;0.00;0.00;;;;;;;;6225694;22;11461;-89
2022/09/27 15:29:50;;;;;;;;;0.00;0.00;;;;;;;;6254378;22;8841;-89
2022/09/27 15:32:16;;;;;;;;;0.00;0.00;;;;;;;;6225511;22;11505;-89
2022/09/27 15:34:42;;;;;;;;;0.00;0.00;;;;;;;;6225347;22;11510;-90
2022/09/27 15:37:22;;;;;;;;;0.00;0.00;;;;;;;;6225408;22;11467;-93
2022/09/27 15:39:47;;;;;;;;;0.00;0.00;;;;;;;;6226329;22;8762;-91
2022/09/27 15:42:16;;;;;;;;;0.00;0.00;;;;;;;;6253443;22;9476;-87
2022/09/27 15:44:41;;;;;;;;;0.00;0.00;;;;;;;;6227543;22;8961;-90
2022/09/27 15:47:26;;;;;;;;;0.00;0.00;;;;;;;;6250460;22;11451;-90
2022/09/27 15:49:52;;;;;;;;;0.00;0.00;;;;;;;;6225777;22;8813;-88
2022/09/27 15:52:37;;;;;;;;;0.00;0.00;;;;;;;;6250301;22;11443;-89
2022/09/27 15:55:02;;;;;;;;;0.00;0.00;;;;;;;;6225683;22;9551;-88
2022/09/27 15:57:27;;;;;;;;;0.00;0.00;;;;;;;;6252877;22;11442;-89
2022/09/27 15:59:53;;;;;;;;;0.00;0.00;;;;;;;;6226358;22;9129;-88
2022/09/27 16:02:20;;;;;;;;;0.00;0.00;;;;;;;;6252928;22;8758;-88
2022/09/27 16:04:45;;;;;;;;;0.00;0.00;;;;;;;;6253756;22;9662;-88
2022/09/27 16:07:12;;;;;;;;;0.00;0.00;;;;;;;;6252703;22;11455;-88
2022/09/27 16:09:37;;;;;;;;;0.00;0.00;;;;;;;;6226144;22;8765;-89
2022/09/27 16:12:02;;;;;;;;;0.00;0.00;;;;;;;;6253387;22;12296;-88
2022/09/27 16:14:28;;;;;;;;;0.00;0.00;;;;;;;;6253639;22;9667;-88
2022/09/27 16:16:55;;;;;;;;;0.00;0.00;;;;;;;;6253042;22;8770;-88
2022/09/27 16:19:20;;;;;;;;;0.00;0.00;;;;;;;;6225936;22;9087;-88
2022/09/27 16:21:47;;;;;;;;;0.00;0.00;;;;;;;;6225433;22;11462;-90
2022/09/27 16:24:12;;;;;;;;;0.00;0.00;;;;;;;;6255411;22;8737;-90
2022/09/27 16:26:37;;;;;;;;;0.00;0.00;;;;;;;;6227262;22;11462;-90
2022/09/27 16:29:03;;;;;;;;;0.00;0.00;;;;;;;;6226282;22;8872;-89
2022/09/27 16:31:28;;;;;;;;;0.00;0.00;;;;;;;;6253184;22;8872;-89
2022/09/27 16:33:54;;;;;;;;;0.00;0.00;;;;;;;;6254097;22;8793;-89
2022/09/27 16:36:19;;;;;;;;;0.00;0.00;;;;;;;;6225437;22;9101;-89
2022/09/27 16:38:51;;;;;;;;;0.00;0.00;;;;;;;;6225379;22;8762;-89
2022/09/27 16:41:17;;;;;;;;;0.00;0.00;;;;;;;;6225517;22;8750;-90
2022/09/27 16:43:44;;;;;;;;;0.00;0.00;;;;;;;;6226461;22;12323;-88
2022/09/27 16:46:11;;;;;;;;;0.00;0.00;;;;;;;;6252311;22;8769;-88
2022/09/27 16:48:37;;;;;;;;;0.00;0.00;;;;;;;;6254097;22;11461;-89
2022/09/27 16:53:47;;;;;;;;;0.00;0.00;;;;;;;;6253576;22;8706;-88
2022/09/27 16:56:12;;;;;;;;;0.00;0.00;;;;;;;;6251491;22;11520;-89
2022/09/27 16:58:38;;;;;;;;;0.00;0.00;;;;;;;;6226272;22;8878;-88
2022/09/27 17:01:03;;;;;;;;;0.00;0.00;;;;;;;;6225334;22;8838;-88
2022/09/27 17:03:28;;;;;;;;;0.00;0.00;;;;;;;;6226455;22;8781;-89
2022/09/27 17:05:54;;;;;;;;;0.00;0.00;;;;;;;;6253566;22;8765;-88
2022/09/27 17:08:19;;;;;;;;;0.00;0.00;;;;;;;;6234421;22;8808;-90
2022/09/27 17:10:45;;;;;;;;;0.00;0.00;;;;;;;;6227558;22;8853;-89
2022/09/27 17:13:10;;;;;;;;;0.00;0.00;;;;;;;;6220459;23;8783;-89
2022/09/27 17:15:36;;;;;;;;;0.00;0.00;;;;;;;;6229721;23;8748;-88
2022/09/27 17:18:01;;;;;;;;;0.00;0.00;;;;;;;;6224530;23;9534;-89
2022/09/27 17:20:27;;;;;;;;;0.00;0.00;;;;;;;;6246463;22;8794;-89
2022/09/27 17:22:52;;;;;;;;;0.00;0.00;;;;;;;;6246784;22;8759;-89
2022/09/27 17:25:17;;;;;;;;;0.00;0.00;;;;;;;;6222169;22;8850;-92
2022/09/27 17:27:42;;;;;;;;;0.00;0.00;;;;;;;;6223175;23;8796;-92
2022/09/27 17:30:08;;;;;;;;;0.00;0.00;;;;;;;;6219024;23;8760;-89
2022/09/27 17:32:33;;;;;;;;;0.00;0.00;;;;;;;;6223468;23;8775;-91
2022/09/27 17:34:58;;;;;;;;;0.00;0.00;;;;;;;;6223603;23;8868;-88
2022/09/27 17:37:24;;;;;;;;;0.00;0.00;;;;;;;;6222318;23;8748;-90
2022/09/27 17:39:49;;;;;;;;;0.00;0.00;;;;;;;;6224416;23;8744;-89
2022/09/27 17:42:14;;;;;;;;;0.00;0.00;;;;;;;;6224039;23;8822;-90
2022/09/27 17:44:41;;;;;;;;;0.00;0.00;;;;;;;;6248197;22;8960;-90
2022/09/27 17:52:34;;;;;;;;;0.00;0.00;;;;;;;;6224476;23;11417;-90
2022/09/27 17:54:59;;;;;;;;;0.00;0.00;;;;;;;;6247827;22;11531;-90
2022/09/27 17:57:24;;;;;;;;;0.00;0.00;;;;;;;;6248096;22;8763;-91
2022/09/27 17:59:50;;;;;;;;;0.00;0.00;;;;;;;;6225421;23;8862;-91
2022/09/27 18:02:15;;;;;;;;;0.00;0.00;;;;;;;;6224818;23;8859;-91
2022/09/27 18:04:41;;;;;;;;;0.00;0.00;;;;;;;;6225227;23;8787;-92
2022/09/27 18:07:06;;;;;;;;;0.00;0.00;;;;;;;;6225445;23;8751;-92
2022/09/27 18:09:31;;;;;;;;;0.00;0.00;;;;;;;;6249689;22;8750;-91
2022/09/27 18:11:57;;;;;;;;;0.00;0.00;;;;;;;;6229666;22;8759;-92
2022/09/27 18:14:25;;;;;;;;;0.00;0.00;;;;;;;;6256316;22;8773;-92
2022/09/27 18:16:53;;;;;;;;;0.00;0.00;;;;;;;;6256724;22;8758;-90
2022/09/27 18:19:18;;;;;;;;;0.00;0.00;;;;;;;;6228241;22;11471;-91
2022/09/27 18:21:43;;;;;;;;;0.00;0.00;;;;;;;;6260554;22;11447;-90
2022/09/27 18:24:09;;;;;;;;;0.00;0.00;;;;;;;;6237657;22;8860;-92
2022/09/27 18:26:36;;;;;;;;;0.00;0.00;;;;;;;;6262178;22;8706;-89
2022/09/27 18:29:03;;;;;;;;;0.00;0.00;;;;;;;;6263543;22;8710;-91
2022/09/27 18:31:28;;;;;;;;;0.00;0.00;;;;;;;;6232061;22;11450;-87
2022/09/27 18:33:54;;;;;;;;;0.00;0.00;;;;;;;;6260341;22;11487;-89
2022/09/27 18:36:20;;;;;;;;;0.00;0.00;;;;;;;;6261135;22;8766;-95
2022/09/27 18:38:50;;;;;;;;;0.00;0.00;;;;;;;;6260718;22;8761;-91
2022/09/27 18:41:16;;;;;;;;;0.00;0.00;;;;;;;;6257850;22;8754;-90
2022/09/27 18:43:43;;;;;;;;;0.00;0.00;;;;;;;;6230080;22;11451;-91
2022/09/27 18:46:09;;;;;;;;;0.00;0.00;;;;;;;;6228629;22;8881;-90
2022/09/27 18:48:35;;;;;;;;;0.00;0.00;;;;;;;;6229615;22;11427;-93
2022/09/27 18:51:20;;;;;;;;;0.00;0.00;;;;;;;;6256121;22;11427;-95
2022/09/27 18:53:46;;;;;;;;;0.00;0.00;;;;;;;;6256756;22;11479;-88
2022/09/27 18:56:13;;;;;;;;;0.00;0.00;;;;;;;;6228150;22;11466;-89
2022/09/27 18:58:41;;;;;;;;;0.00;0.00;;;;;;;;6258875;22;11455;-93
2022/09/27 19:01:06;;;;;;;;;0.00;0.00;;;;;;;;6229120;22;11453;-90
2022/09/27 19:03:32;;;;;;;;;0.00;0.00;;;;;;;;6229879;22;11595;-90
2022/09/27 19:05:59;;;;;;;;;0.00;0.00;;;;;;;;6228179;22;8770;-92
2022/09/27 19:08:24;;;;;;;;;0.00;0.00;;;;;;;;6262315;22;8730;-92
2022/09/27 19:10:50;;;;;;;;;0.00;0.00;;;;;;;;6236490;22;11458;-92
2022/09/27 19:13:15;;;;;;;;;0.00;0.00;;;;;;;;6259514;22;8802;-95
2022/09/27 19:15:40;;;;;;;;;4.33;4.33;;;;;;;;6232759;22;8788;-94
2022/09/27 19:18:06;;;;;;;;;0.00;0.00;;;;;;;;6232009;22;8815;-95
2022/09/27 19:20:32;;;;;;;;;0.00;0.00;;;;;;;;6228447;22;8773;-94
2022/09/27 19:22:57;;;;;;;;;0.00;0.00;;;;;;;;6255707;22;8761;-91
2022/09/27 19:25:22;;;;;;;;;0.00;0.00;;;;;;;;6266096;22;8710;-95
2022/09/27 19:27:48;;;;;;;;;0.00;0.00;;;;;;;;6269652;22;8762;-95
2022/09/27 19:30:14;;;;;;;;;0.00;0.00;;;;;;;;6221012;22;8764;-94
2022/09/27 19:32:39;;;;;;;;;0.00;0.00;;;;;;;;6241825;22;11467;-94
2022/09/27 19:35:04;;;;;;;;;0.00;0.00;;;;;;;;6239099;22;8812;-94
2022/09/27 19:37:30;;;;;;;;;0.00;0.00;;;;;;;;6237266;22;8758;-95
2022/09/27 19:39:55;;;;;;;;;0.00;0.00;;;;;;;;6242497;22;8806;-96
2022/09/27 19:42:20;;;;;;;;;0.00;0.00;;;;;;;;6235521;22;8778;-96
2022/09/27 19:44:45;;;;;;;;;0.00;0.00;;;;;;;;6235404;22;8774;-95
2022/09/27 19:47:10;;;;;;;;;0.00;0.00;;;;;;;;6261057;22;9159;-95
2022/09/27 19:49:35;;;;;;;;;0.00;0.00;;;;;;;;6257551;22;8765;-96
2022/09/27 19:52:03;;;;;;;;;0.00;0.00;;;;;;;;6231735;22;8806;-95
2022/09/27 19:54:28;;;;;;;;;0.00;0.00;;;;;;;;6234633;22;8785;-95
2022/09/27 19:56:53;;;;;;;;;0.00;0.00;;;;;;;;6258751;22;11522;-96
2022/09/27 19:59:28;;;;;;;;;0.00;0.00;;;;;;;;6244832;22;8714;-96
2022/09/27 20:01:54;;;;;;;;;0.00;0.00;;;;;;;;6252608;22;8703;-96
2022/09/27 20:04:22;;;;;;;;;0.00;0.00;;;;;;;;6276235;22;11653;-96
2022/09/27 20:06:47;;;;;;;;;0.00;0.00;;;;;;;;6240099;22;8769;-95
2022/09/27 20:09:12;;;;;;;;;0.00;0.00;;;;;;;;6232974;22;11541;-96
2022/09/27 20:11:38;;;;;;;;;0.00;0.00;;;;;;;;6240108;22;8812;-96
2022/09/27 20:14:03;;;;;;;;;0.00;0.00;;;;;;;;6233619;22;8810;-93
2022/09/27 20:16:29;;;;;;;;;0.00;0.00;;;;;;;;6264955;22;8853;-96
2022/09/27 20:18:56;;;;;;;;;0.00;0.00;;;;;;;;6264681;22;8694;-96
2022/09/27 20:21:23;;;;;;;;;0.00;0.00;;;;;;;;6231577;22;11446;-93
2022/09/27 20:23:52;;;;;;;;;0.00;0.00;;;;;;;;6259196;22;11439;-94
2022/09/27 20:26:18;;;;;;;;;0.00;0.00;;;;;;;;6231301;22;12367;-96
2022/09/27 20:28:45;;;;;;;;;0.00;0.00;;;;;;;;6262697;22;11427;-96
2022/09/27 20:31:11;;;;;;;;;0.00;0.00;;;;;;;;6234314;22;8760;-96
2022/09/27 20:33:48;;;;;;;;;0.00;0.00;;;;;;;;6234052;22;8812;-91
2022/09/27 20:36:14;;;;;;;;;0.00;0.00;;;;;;;;6254850;22;8726;-89
2022/09/27 20:38:43;;;;;;;;;0.00;0.00;;;;;;;;6254477;22;8807;-92
2022/09/27 20:41:09;;;;;;;;;0.00;0.00;;;;;;;;6227245;22;11451;-89
2022/09/27 20:43:35;;;;;;;;;0.00;0.00;;;;;;;;6254471;22;11643;-88
2022/09/27 20:46:04;;;;;;;;;0.00;0.00;;;;;;;;6226354;22;8758;-87
2022/09/27 20:48:30;;;;;;;;;0.00;0.00;;;;;;;;6226329;22;8738;-90
2022/09/27 20:50:59;;;;;;;;;0.00;0.00;;;;;;;;6255241;22;11477;-89
2022/09/27 20:53:53;;;;;;;;;0.00;0.00;;;;;;;;6244076;22;8733;-96
2022/09/27 20:56:21;;;;;;;;;0.00;0.00;;;;;;;;6240048;22;11517;-96
2022/09/27 20:58:47;;;;;;;;;0.00;0.00;;;;;;;;6240013;22;11430;-96
2022/09/27 21:01:13;;;;;;;;;0.00;0.00;;;;;;;;6238055;22;11450;-96
2022/09/27 21:03:38;;;;;;;;;0.00;0.00;;;;;;;;6244527;22;8757;-96
2022/09/27 21:06:04;;;;;;;;;0.00;0.00;;;;;;;;6241957;22;8765;-96
2022/09/27 21:08:31;;;;;;;;;0.00;0.00;;;;;;;;6240717;22;8754;-96
2022/09/27 21:11:05;;;;;;;;;0.00;0.00;;;;;;;;6236669;22;8746;-96
2022/09/27 21:13:30;;;;;;;;;0.00;0.00;;;;;;;;6211780;22;11494;-96
2022/09/27 21:16:05;;;;;;;;;0.00;0.00;;;;;;;;6235091;22;11443;-95
2022/09/27 21:18:31;;;;;;;;;0.00;0.00;;;;;;;;6234624;22;8749;-96
2022/09/27 21:20:58;;;;;;;;;0.00;0.00;;;;;;;;6259143;22;8770;-96
2022/09/27 21:23:24;;;;;;;;;0.00;0.00;;;;;;;;6237255;22;11435;-95
2022/09/27 21:25:58;;;;;;;;;0.00;0.00;;;;;;;;6233425;22;11447;-96
2022/09/27 21:28:23;;;;;;;;;0.00;0.00;;;;;;;;6234972;22;8769;-95
2022/09/27 21:30:51;;;;;;;;;0.00;0.00;;;;;;;;6234370;22;8869;-96
2022/09/27 21:33:26;;;;;;;;;0.00;0.00;;;;;;;;6239779;22;8770;-95
2022/09/27 21:35:54;;;;;;;;;0.00;0.00;;;;;;;;6242811;22;9164;-96
2022/09/27 21:41:29;;;;;;;;;0.00;0.00;;;;;;;;6220424;22;8713;-96
2022/09/27 21:43:56;;;;;;;;;0.00;0.00;;;;;;;;6245091;22;11407;-96
2022/09/27 21:46:24;;;;;;;;;0.00;0.00;;;;;;;;6269147;22;8840;-96
2022/09/27 21:48:54;;;;;;;;;0.00;0.00;;;;;;;;6238497;22;8834;-96